sensor_id;sensor_type;location;lat;lon;timestamp;temperature;humidity
5061;DHT22;2549;52.128;21.068;2023-04-03T00:01:17;6.90;87.40
5061;DHT22;2549;52.128;21.068;2023-04-03T00:03:44;6.90;87.00
5061;DHT22;2549;52.128;21.068;2023-04-03T00:06:11;6.80;86.50
5061;DHT22;2549;52.128;21.068;2023-04-03T00:08:39;6.70;86.70
5061;DHT22;2549;52.128;21.068;2023-04-03T00:11:07;6.70;86.90
5061;DHT22;2549;52.128;21.068;2023-04-03T00:13:34;6.70;86.90
5061;DHT22;2549;52.128;21.068;2023-04-03T00:16:01;6.70;86.00
5061;DHT22;2549;52.128;21.068;2023-04-03T00:18:30;6.70;86.20
5061;DHT22;2549;52.128;21.068;2023-04-03T00:20:57;6.60;86.00
5061;DHT22;2549;52.128;21.068;2023-04-03T00:23:24;6.60;86.10
5061;DHT22;2549;52.128;21.068;2023-04-03T00:25:51;6.60;86.00
5061;DHT22;2549;52.128;21.068;2023-04-03T00:28:18;6.50;86.40
5061;DHT22;2549;52.128;21.068;2023-04-03T00:30:46;6.50;86.00
5061;DHT22;2549;52.128;21.068;2023-04-03T00:33:13;6.50;86.00
5061;DHT22;2549;52.128;21.068;2023-04-03T00:35:40;6.40;86.40
5061;DHT22;2549;52.128;21.068;2023-04-03T00:38:08;6.40;85.80
5061;DHT22;2549;52.128;21.068;2023-04-03T00:40:38;6.40;85.90
5061;DHT22;2549;52.128;21.068;2023-04-03T00:45:48;6.30;85.30
5061;DHT22;2549;52.128;21.068;2023-04-03T00:48:42;6.30;85.50
5061;DHT22;2549;52.128;21.068;2023-04-03T00:51:14;6.20;84.60
5061;DHT22;2549;52.128;21.068;2023-04-03T00:53:47;6.20;84.90
5061;DHT22;2549;52.128;21.068;2023-04-03T00:56:17;6.20;84.80
5061;DHT22;2549;52.128;21.068;2023-04-03T00:58:51;6.20;84.80
5061;DHT22;2549;52.128;21.068;2023-04-03T01:01:24;6.20;84.80
5061;DHT22;2549;52.128;21.068;2023-04-03T01:03:52;6.10;84.50
5061;DHT22;2549;52.128;21.068;2023-04-03T01:06:25;6.10;84.30
5061;DHT22;2549;52.128;21.068;2023-04-03T01:08:53;6.10;83.40
5061;DHT22;2549;52.128;21.068;2023-04-03T01:11:21;6.10;83.70
5061;DHT22;2549;52.128;21.068;2023-04-03T01:13:48;6.00;83.70
5061;DHT22;2549;52.128;21.068;2023-04-03T01:16:15;6.00;83.50
5061;DHT22;2549;52.128;21.068;2023-04-03T01:18:44;5.90;83.90
5061;DHT22;2549;52.128;21.068;2023-04-03T01:24:09;5.90;83.30
5061;DHT22;2549;52.128;21.068;2023-04-03T01:26:37;5.90;83.80
5061;DHT22;2549;52.128;21.068;2023-04-03T01:29:05;5.90;83.70
5061;DHT22;2549;52.128;21.068;2023-04-03T01:34:03;5.90;83.90
5061;DHT22;2549;52.128;21.068;2023-04-03T01:36:31;5.80;83.70
5061;DHT22;2549;52.128;21.068;2023-04-03T01:38:59;5.80;83.20
5061;DHT22;2549;52.128;21.068;2023-04-03T01:41:27;5.70;83.80
5061;DHT22;2549;52.128;21.068;2023-04-03T01:43:53;5.70;83.70
5061;DHT22;2549;52.128;21.068;2023-04-03T01:46:21;5.70;83.50
5061;DHT22;2549;52.128;21.068;2023-04-03T01:48:48;5.60;83.60
5061;DHT22;2549;52.128;21.068;2023-04-03T01:51:16;5.60;84.10
5061;DHT22;2549;52.128;21.068;2023-04-03T01:53:42;5.60;84.10
5061;DHT22;2549;52.128;21.068;2023-04-03T01:56:09;5.60;84.00
5061;DHT22;2549;52.128;21.068;2023-04-03T01:58:37;5.60;83.90
5061;DHT22;2549;52.128;21.068;2023-04-03T02:01:05;5.50;83.50
5061;DHT22;2549;52.128;21.068;2023-04-03T02:03:32;5.50;83.90
5061;DHT22;2549;52.128;21.068;2023-04-03T02:05:59;5.50;84.00
5061;DHT22;2549;52.128;21.068;2023-04-03T02:08:26;5.50;83.80
5061;DHT22;2549;52.128;21.068;2023-04-03T02:10:53;5.50;83.90
5061;DHT22;2549;52.128;21.068;2023-04-03T02:13:20;5.50;83.90
5061;DHT22;2549;52.128;21.068;2023-04-03T02:15:47;5.50;83.60
5061;DHT22;2549;52.128;21.068;2023-04-03T02:18:14;5.40;83.80
5061;DHT22;2549;52.128;21.068;2023-04-03T02:20:41;5.40;83.90
5061;DHT22;2549;52.128;21.068;2023-04-03T02:23:08;5.40;84.10
5061;DHT22;2549;52.128;21.068;2023-04-03T02:25:35;5.40;84.00
5061;DHT22;2549;52.128;21.068;2023-04-03T02:28:04;5.30;83.80
5061;DHT22;2549;52.128;21.068;2023-04-03T02:30:31;5.30;83.90
5061;DHT22;2549;52.128;21.068;2023-04-03T02:32:58;5.20;83.80
5061;DHT22;2549;52.128;21.068;2023-04-03T02:35:25;5.30;84.10
5061;DHT22;2549;52.128;21.068;2023-04-03T02:37:52;5.20;83.80
5061;DHT22;2549;52.128;21.068;2023-04-03T02:40:19;5.20;83.40
5061;DHT22;2549;52.128;21.068;2023-04-03T02:42:46;5.20;83.70
5061;DHT22;2549;52.128;21.068;2023-04-03T02:45:13;5.20;84.00
5061;DHT22;2549;52.128;21.068;2023-04-03T02:47:40;5.20;83.90
5061;DHT22;2549;52.128;21.068;2023-04-03T02:50:07;5.10;84.10
5061;DHT22;2549;52.128;21.068;2023-04-03T02:52:34;5.10;83.70
5061;DHT22;2549;52.128;21.068;2023-04-03T02:55:01;5.10;84.20
5061;DHT22;2549;52.128;21.068;2023-04-03T02:57:28;5.10;84.00
5061;DHT22;2549;52.128;21.068;2023-04-03T02:59:55;5.00;84.00
5061;DHT22;2549;52.128;21.068;2023-04-03T03:02:21;5.00;83.90
5061;DHT22;2549;52.128;21.068;2023-04-03T03:04:48;5.00;83.90
5061;DHT22;2549;52.128;21.068;2023-04-03T03:07:15;4.90;83.90
5061;DHT22;2549;52.128;21.068;2023-04-03T03:09:42;5.00;84.00
5061;DHT22;2549;52.128;21.068;2023-04-03T03:12:09;5.00;83.90
5061;DHT22;2549;52.128;21.068;2023-04-03T03:14:35;4.90;84.30
5061;DHT22;2549;52.128;21.068;2023-04-03T03:17:02;4.90;83.90
5061;DHT22;2549;52.128;21.068;2023-04-03T03:19:29;4.90;84.30
5061;DHT22;2549;52.128;21.068;2023-04-03T03:21:56;4.90;83.90
5061;DHT22;2549;52.128;21.068;2023-04-03T03:24:23;4.80;84.20
5061;DHT22;2549;52.128;21.068;2023-04-03T03:26:50;4.80;84.30
5061;DHT22;2549;52.128;21.068;2023-04-03T03:29:17;4.80;84.50
5061;DHT22;2549;52.128;21.068;2023-04-03T03:31:44;4.80;84.70
5061;DHT22;2549;52.128;21.068;2023-04-03T03:34:11;4.80;84.60
5061;DHT22;2549;52.128;21.068;2023-04-03T03:36:38;4.70;84.10
5061;DHT22;2549;52.128;21.068;2023-04-03T03:39:05;4.70;84.50
5061;DHT22;2549;52.128;21.068;2023-04-03T03:41:32;4.70;85.50
5061;DHT22;2549;52.128;21.068;2023-04-03T03:43:59;4.70;84.50
5061;DHT22;2549;52.128;21.068;2023-04-03T03:46:26;4.70;84.70
5061;DHT22;2549;52.128;21.068;2023-04-03T03:48:53;4.70;84.50
5061;DHT22;2549;52.128;21.068;2023-04-03T03:51:20;4.60;84.80
5061;DHT22;2549;52.128;21.068;2023-04-03T03:53:47;4.60;85.10
5061;DHT22;2549;52.128;21.068;2023-04-03T03:56:13;4.50;84.60
5061;DHT22;2549;52.128;21.068;2023-04-03T03:58:40;4.50;85.00
5061;DHT22;2549;52.128;21.068;2023-04-03T04:01:07;4.40;85.60
5061;DHT22;2549;52.128;21.068;2023-04-03T04:03:34;4.40;85.50
5061;DHT22;2549;52.128;21.068;2023-04-03T04:06:01;4.30;85.90
5061;DHT22;2549;52.128;21.068;2023-04-03T04:08:28;4.40;85.80
5061;DHT22;2549;52.128;21.068;2023-04-03T04:10:55;4.40;86.00
5061;DHT22;2549;52.128;21.068;2023-04-03T04:13:22;4.40;86.20
5061;DHT22;2549;52.128;21.068;2023-04-03T04:15:49;4.40;85.80
5061;DHT22;2549;52.128;21.068;2023-04-03T04:18:15;4.40;86.10
5061;DHT22;2549;52.128;21.068;2023-04-03T04:20:45;4.40;85.80
5061;DHT22;2549;52.128;21.068;2023-04-03T04:23:11;4.30;85.80
5061;DHT22;2549;52.128;21.068;2023-04-03T04:25:38;4.30;86.00
5061;DHT22;2549;52.128;21.068;2023-04-03T04:28:05;4.30;86.10
5061;DHT22;2549;52.128;21.068;2023-04-03T04:30:32;4.30;86.40
5061;DHT22;2549;52.128;21.068;2023-04-03T04:32:59;4.30;85.80
5061;DHT22;2549;52.128;21.068;2023-04-03T04:35:26;4.30;86.20
5061;DHT22;2549;52.128;21.068;2023-04-03T04:37:53;4.30;85.80
5061;DHT22;2549;52.128;21.068;2023-04-03T04:40:20;4.30;86.00
5061;DHT22;2549;52.128;21.068;2023-04-03T04:42:47;4.30;86.10
5061;DHT22;2549;52.128;21.068;2023-04-03T04:45:14;4.20;86.30
5061;DHT22;2549;52.128;21.068;2023-04-03T04:47:41;4.20;86.50
5061;DHT22;2549;52.128;21.068;2023-04-03T04:50:09;4.20;86.00
5061;DHT22;2549;52.128;21.068;2023-04-03T04:52:36;4.20;86.50
5061;DHT22;2549;52.128;21.068;2023-04-03T04:55:03;4.20;86.50
5061;DHT22;2549;52.128;21.068;2023-04-03T04:57:30;4.20;86.40
5061;DHT22;2549;52.128;21.068;2023-04-03T04:59:57;4.20;86.10
5061;DHT22;2549;52.128;21.068;2023-04-03T05:02:24;4.20;85.90
5061;DHT22;2549;52.128;21.068;2023-04-03T05:04:51;4.20;86.30
5061;DHT22;2549;52.128;21.068;2023-04-03T05:07:18;4.20;86.40
5061;DHT22;2549;52.128;21.068;2023-04-03T05:09:45;4.20;86.60
5061;DHT22;2549;52.128;21.068;2023-04-03T05:12:12;4.10;86.10
5061;DHT22;2549;52.128;21.068;2023-04-03T05:14:39;4.10;86.50
5061;DHT22;2549;52.128;21.068;2023-04-03T05:17:06;4.10;86.60
5061;DHT22;2549;52.128;21.068;2023-04-03T05:19:33;4.10;86.30
5061;DHT22;2549;52.128;21.068;2023-04-03T05:22:00;4.00;86.60
5061;DHT22;2549;52.128;21.068;2023-04-03T05:24:26;4.00;86.60
5061;DHT22;2549;52.128;21.068;2023-04-03T05:26:53;4.10;86.70
5061;DHT22;2549;52.128;21.068;2023-04-03T05:29:21;4.10;86.80
5061;DHT22;2549;52.128;21.068;2023-04-03T05:31:51;4.10;86.80
5061;DHT22;2549;52.128;21.068;2023-04-03T05:34:18;4.10;86.80
5061;DHT22;2549;52.128;21.068;2023-04-03T05:36:45;4.10;86.50
5061;DHT22;2549;52.128;21.068;2023-04-03T05:39:12;4.10;86.60
5061;DHT22;2549;52.128;21.068;2023-04-03T05:41:39;4.00;86.60
5061;DHT22;2549;52.128;21.068;2023-04-03T05:44:06;4.10;87.20
5061;DHT22;2549;52.128;21.068;2023-04-03T05:46:33;4.10;87.10
5061;DHT22;2549;52.128;21.068;2023-04-03T05:48:59;4.10;86.90
5061;DHT22;2549;52.128;21.068;2023-04-03T05:51:33;4.10;86.90
5061;DHT22;2549;52.128;21.068;2023-04-03T05:54:11;4.10;87.20
5061;DHT22;2549;52.128;21.068;2023-04-03T05:56:39;4.10;86.40
5061;DHT22;2549;52.128;21.068;2023-04-03T05:59:06;4.10;86.30
5061;DHT22;2549;52.128;21.068;2023-04-03T06:01:34;4.10;86.40
5061;DHT22;2549;52.128;21.068;2023-04-03T06:04:01;4.20;86.80
5061;DHT22;2549;52.128;21.068;2023-04-03T06:06:53;4.20;86.50
5061;DHT22;2549;52.128;21.068;2023-04-03T06:09:22;4.20;86.60
5061;DHT22;2549;52.128;21.068;2023-04-03T06:11:49;4.30;86.60
5061;DHT22;2549;52.128;21.068;2023-04-03T06:14:16;4.30;86.40
5061;DHT22;2549;52.128;21.068;2023-04-03T06:16:42;4.30;86.50
5061;DHT22;2549;52.128;21.068;2023-04-03T06:19:11;4.40;86.60
5061;DHT22;2549;52.128;21.068;2023-04-03T06:21:38;4.40;86.50
5061;DHT22;2549;52.128;21.068;2023-04-03T06:24:06;4.40;86.40
5061;DHT22;2549;52.128;21.068;2023-04-03T06:26:33;4.50;87.20
5061;DHT22;2549;52.128;21.068;2023-04-03T06:29:01;4.50;86.00
5061;DHT22;2549;52.128;21.068;2023-04-03T06:31:29;4.50;86.20
5061;DHT22;2549;52.128;21.068;2023-04-03T06:33:56;4.60;85.60
5061;DHT22;2549;52.128;21.068;2023-04-03T06:36:23;4.60;85.90
5061;DHT22;2549;52.128;21.068;2023-04-03T06:38:50;4.60;86.10
5061;DHT22;2549;52.128;21.068;2023-04-03T06:41:17;4.60;86.10
5061;DHT22;2549;52.128;21.068;2023-04-03T06:43:44;4.60;85.60
5061;DHT22;2549;52.128;21.068;2023-04-03T06:46:19;4.60;85.90
5061;DHT22;2549;52.128;21.068;2023-04-03T06:48:47;4.60;85.30
5061;DHT22;2549;52.128;21.068;2023-04-03T06:51:26;4.60;86.20
5061;DHT22;2549;52.128;21.068;2023-04-03T06:53:55;4.60;85.40
5061;DHT22;2549;52.128;21.068;2023-04-03T06:56:23;4.60;85.00
5061;DHT22;2549;52.128;21.068;2023-04-03T06:58:50;4.60;85.00
5061;DHT22;2549;52.128;21.068;2023-04-03T07:01:18;4.60;85.20
5061;DHT22;2549;52.128;21.068;2023-04-03T07:03:48;4.60;85.80
5061;DHT22;2549;52.128;21.068;2023-04-03T07:06:16;4.60;85.40
5061;DHT22;2549;52.128;21.068;2023-04-03T07:08:44;4.70;85.80
5061;DHT22;2549;52.128;21.068;2023-04-03T07:11:11;4.70;86.10
5061;DHT22;2549;52.128;21.068;2023-04-03T07:13:38;4.80;85.20
5061;DHT22;2549;52.128;21.068;2023-04-03T07:16:06;4.80;84.70
5061;DHT22;2549;52.128;21.068;2023-04-03T07:18:33;4.80;84.50
5061;DHT22;2549;52.128;21.068;2023-04-03T07:21:00;4.90;84.30
5061;DHT22;2549;52.128;21.068;2023-04-03T07:23:27;4.90;84.30
5061;DHT22;2549;52.128;21.068;2023-04-03T07:25:54;4.90;84.10
5061;DHT22;2549;52.128;21.068;2023-04-03T07:28:22;4.90;84.20
5061;DHT22;2549;52.128;21.068;2023-04-03T07:30:58;4.90;84.10
5061;DHT22;2549;52.128;21.068;2023-04-03T07:33:26;4.90;83.80
5061;DHT22;2549;52.128;21.068;2023-04-03T07:35:53;4.90;83.80
5061;DHT22;2549;52.128;21.068;2023-04-03T07:38:20;5.00;83.90
5061;DHT22;2549;52.128;21.068;2023-04-03T07:40:48;5.00;83.60
5061;DHT22;2549;52.128;21.068;2023-04-03T07:43:16;5.00;83.40
5061;DHT22;2549;52.128;21.068;2023-04-03T07:45:43;5.10;84.30
5061;DHT22;2549;52.128;21.068;2023-04-03T07:48:11;5.10;83.10
5061;DHT22;2549;52.128;21.068;2023-04-03T07:50:41;5.10;82.90
5061;DHT22;2549;52.128;21.068;2023-04-03T07:53:08;5.20;82.80
5061;DHT22;2549;52.128;21.068;2023-04-03T07:55:36;5.20;82.30
5061;DHT22;2549;52.128;21.068;2023-04-03T07:58:14;5.30;82.60
5061;DHT22;2549;52.128;21.068;2023-04-03T08:00:41;5.30;81.60
5061;DHT22;2549;52.128;21.068;2023-04-03T08:03:10;5.30;81.50
5061;DHT22;2549;52.128;21.068;2023-04-03T08:05:40;5.30;81.50
5061;DHT22;2549;52.128;21.068;2023-04-03T08:08:08;5.30;80.80
5061;DHT22;2549;52.128;21.068;2023-04-03T08:10:35;5.40;80.00
5061;DHT22;2549;52.128;21.068;2023-04-03T08:13:02;5.40;77.90
5061;DHT22;2549;52.128;21.068;2023-04-03T08:15:30;5.40;77.50
5061;DHT22;2549;52.128;21.068;2023-04-03T08:17:58;5.30;77.00
5061;DHT22;2549;52.128;21.068;2023-04-03T08:20:26;5.40;76.70
5061;DHT22;2549;52.128;21.068;2023-04-03T08:22:53;5.40;77.10
5061;DHT22;2549;52.128;21.068;2023-04-03T08:25:20;5.40;77.30
5061;DHT22;2549;52.128;21.068;2023-04-03T08:27:47;5.40;79.20
5061;DHT22;2549;52.128;21.068;2023-04-03T08:30:14;5.50;78.00
5061;DHT22;2549;52.128;21.068;2023-04-03T08:32:41;5.60;77.10
5061;DHT22;2549;52.128;21.068;2023-04-03T08:35:11;5.60;75.90
5061;DHT22;2549;52.128;21.068;2023-04-03T08:37:39;5.60;74.50
5061;DHT22;2549;52.128;21.068;2023-04-03T08:40:11;5.70;75.60
5061;DHT22;2549;52.128;21.068;2023-04-03T08:42:57;5.80;75.00
5061;DHT22;2549;52.128;21.068;2023-04-03T08:45:44;5.80;74.50
5061;DHT22;2549;52.128;21.068;2023-04-03T08:48:19;5.80;73.70
5061;DHT22;2549;52.128;21.068;2023-04-03T08:50:51;5.90;72.90
5061;DHT22;2549;52.128;21.068;2023-04-03T08:53:22;5.90;70.80
5061;DHT22;2549;52.128;21.068;2023-04-03T08:55:51;5.80;70.80
5061;DHT22;2549;52.128;21.068;2023-04-03T08:58:33;5.90;71.70
5061;DHT22;2549;52.128;21.068;2023-04-03T09:01:18;5.90;70.30
5061;DHT22;2549;52.128;21.068;2023-04-03T09:03:45;5.90;70.00
5061;DHT22;2549;52.128;21.068;2023-04-03T09:06:25;6.00;69.90
5061;DHT22;2549;52.128;21.068;2023-04-03T09:09:12;6.00;69.90
5061;DHT22;2549;52.128;21.068;2023-04-03T09:17:00;6.10;68.70
5061;DHT22;2549;52.128;21.068;2023-04-03T09:19:38;6.10;69.70
5061;DHT22;2549;52.128;21.068;2023-04-03T09:24:39;6.20;69.70
5061;DHT22;2549;52.128;21.068;2023-04-03T09:27:11;6.20;69.20
5061;DHT22;2549;52.128;21.068;2023-04-03T09:29:43;6.20;67.60
5061;DHT22;2549;52.128;21.068;2023-04-03T09:35:03;6.30;67.20
5061;DHT22;2549;52.128;21.068;2023-04-03T09:37:53;6.30;68.40
5061;DHT22;2549;52.128;21.068;2023-04-03T09:42:54;6.30;67.40
5061;DHT22;2549;52.128;21.068;2023-04-03T09:53:31;6.50;67.40
5061;DHT22;2549;52.128;21.068;2023-04-03T09:55:59;6.50;67.30
5061;DHT22;2549;52.128;21.068;2023-04-03T09:58:33;6.60;66.50
5061;DHT22;2549;52.128;21.068;2023-04-03T10:04:12;6.70;67.50
5061;DHT22;2549;52.128;21.068;2023-04-03T10:06:43;6.80;67.10
5061;DHT22;2549;52.128;21.068;2023-04-03T10:09:33;6.90;67.50
5061;DHT22;2549;52.128;21.068;2023-04-03T10:14:33;7.00;68.00
5061;DHT22;2549;52.128;21.068;2023-04-03T10:17:29;7.00;66.80
5061;DHT22;2549;52.128;21.068;2023-04-03T10:23:05;7.00;68.50
5061;DHT22;2549;52.128;21.068;2023-04-03T10:25:50;7.10;67.60
5061;DHT22;2549;52.128;21.068;2023-04-03T10:31:33;7.20;66.50
5061;DHT22;2549;52.128;21.068;2023-04-03T10:53:31;7.20;65.40
5061;DHT22;2549;52.128;21.068;2023-04-03T10:58:54;7.10;63.80
5061;DHT22;2549;52.128;21.068;2023-04-03T11:01:29;7.10;64.50
5061;DHT22;2549;52.128;21.068;2023-04-03T11:04:00;7.10;63.40
5061;DHT22;2549;52.128;21.068;2023-04-03T11:06:49;7.10;62.80
5061;DHT22;2549;52.128;21.068;2023-04-03T11:09:43;7.20;63.30
5061;DHT22;2549;52.128;21.068;2023-04-03T11:14:50;7.30;61.50
5061;DHT22;2549;52.128;21.068;2023-04-03T11:19:47;7.40;62.40
5061;DHT22;2549;52.128;21.068;2023-04-03T11:22:23;7.40;62.50
5061;DHT22;2549;52.128;21.068;2023-04-03T11:27:45;7.60;64.20
5061;DHT22;2549;52.128;21.068;2023-04-03T11:30:21;7.70;63.10
5061;DHT22;2549;52.128;21.068;2023-04-03T11:32:53;7.70;64.10
5061;DHT22;2549;52.128;21.068;2023-04-03T11:35:24;7.80;64.10
5061;DHT22;2549;52.128;21.068;2023-04-03T11:37:52;7.90;63.00
5061;DHT22;2549;52.128;21.068;2023-04-03T11:40:26;7.90;61.60
5061;DHT22;2549;52.128;21.068;2023-04-03T11:43:04;7.90;62.00
5061;DHT22;2549;52.128;21.068;2023-04-03T11:45:36;7.90;61.80
5061;DHT22;2549;52.128;21.068;2023-04-03T11:50:55;7.70;62.30
5061;DHT22;2549;52.128;21.068;2023-04-03T11:53:37;7.60;63.00
5061;DHT22;2549;52.128;21.068;2023-04-03T12:01:56;7.80;61.50
5061;DHT22;2549;52.128;21.068;2023-04-03T12:04:26;7.90;61.50
5061;DHT22;2549;52.128;21.068;2023-04-03T12:07:17;7.90;61.70
5061;DHT22;2549;52.128;21.068;2023-04-03T12:12:34;7.90;61.40
5061;DHT22;2549;52.128;21.068;2023-04-03T12:15:38;7.90;61.70
5061;DHT22;2549;52.128;21.068;2023-04-03T12:18:43;8.00;61.50
5061;DHT22;2549;52.128;21.068;2023-04-03T12:21:12;8.00;61.20
5061;DHT22;2549;52.128;21.068;2023-04-03T12:26:32;8.20;58.70
5061;DHT22;2549;52.128;21.068;2023-04-03T12:40:37;8.40;60.00
5061;DHT22;2549;52.128;21.068;2023-04-03T12:48:58;8.40;59.10
5061;DHT22;2549;52.128;21.068;2023-04-03T12:51:37;8.30;59.50
5061;DHT22;2549;52.128;21.068;2023-04-03T12:56:40;8.30;58.90
5061;DHT22;2549;52.128;21.068;2023-04-03T13:02:01;8.40;58.60
5061;DHT22;2549;52.128;21.068;2023-04-03T13:04:30;8.40;58.30
5061;DHT22;2549;52.128;21.068;2023-04-03T13:06:58;8.40;58.40
5061;DHT22;2549;52.128;21.068;2023-04-03T13:09:27;8.40;58.30
5061;DHT22;2549;52.128;21.068;2023-04-03T13:12:01;8.40;58.30
5061;DHT22;2549;52.128;21.068;2023-04-03T13:14:29;8.30;57.70
5061;DHT22;2549;52.128;21.068;2023-04-03T13:16:58;8.30;57.70
5061;DHT22;2549;52.128;21.068;2023-04-03T13:19:26;8.30;57.50
5061;DHT22;2549;52.128;21.068;2023-04-03T13:22:05;8.40;57.70
5061;DHT22;2549;52.128;21.068;2023-04-03T13:24:36;8.30;57.20
5061;DHT22;2549;52.128;21.068;2023-04-03T13:27:05;8.30;57.60
5061;DHT22;2549;52.128;21.068;2023-04-03T13:29:35;8.40;57.40
5061;DHT22;2549;52.128;21.068;2023-04-03T13:32:04;8.40;57.40
5061;DHT22;2549;52.128;21.068;2023-04-03T13:34:41;8.50;57.60
5061;DHT22;2549;52.128;21.068;2023-04-03T13:37:33;8.50;56.90
5061;DHT22;2549;52.128;21.068;2023-04-03T13:40:12;8.60;56.90
5061;DHT22;2549;52.128;21.068;2023-04-03T13:43:05;8.60;57.00
5061;DHT22;2549;52.128;21.068;2023-04-03T13:45:34;8.50;55.80
5061;DHT22;2549;52.128;21.068;2023-04-03T13:48:17;8.60;55.80
5061;DHT22;2549;52.128;21.068;2023-04-03T13:56:23;8.50;57.30
5061;DHT22;2549;52.128;21.068;2023-04-03T14:01:42;8.50;57.30
5061;DHT22;2549;52.128;21.068;2023-04-03T14:04:19;8.50;58.20
5061;DHT22;2549;52.128;21.068;2023-04-03T14:06:47;8.60;58.80
5061;DHT22;2549;52.128;21.068;2023-04-03T14:09:16;8.60;58.00
5061;DHT22;2549;52.128;21.068;2023-04-03T14:11:43;8.60;57.70
5061;DHT22;2549;52.128;21.068;2023-04-03T14:14:20;8.60;57.90
5061;DHT22;2549;52.128;21.068;2023-04-03T14:16:54;8.60;57.30
5061;DHT22;2549;52.128;21.068;2023-04-03T14:19:34;8.60;57.00
5061;DHT22;2549;52.128;21.068;2023-04-03T14:22:21;8.60;57.20
5061;DHT22;2549;52.128;21.068;2023-04-03T14:24:50;8.60;57.30
5061;DHT22;2549;52.128;21.068;2023-04-03T14:27:33;8.60;57.30
5061;DHT22;2549;52.128;21.068;2023-04-03T14:30:01;8.60;58.00
5061;DHT22;2549;52.128;21.068;2023-04-03T14:32:30;8.60;58.40
5061;DHT22;2549;52.128;21.068;2023-04-03T14:34:57;8.70;58.50
5061;DHT22;2549;52.128;21.068;2023-04-03T14:37:28;8.70;57.70
5061;DHT22;2549;52.128;21.068;2023-04-03T14:39:57;8.70;58.30
5061;DHT22;2549;52.128;21.068;2023-04-03T14:42:31;8.70;57.90
5061;DHT22;2549;52.128;21.068;2023-04-03T14:45:00;8.70;57.40
5061;DHT22;2549;52.128;21.068;2023-04-03T14:47:28;8.60;56.60
5061;DHT22;2549;52.128;21.068;2023-04-03T14:50:00;8.60;56.80
5061;DHT22;2549;52.128;21.068;2023-04-03T14:52:30;8.60;57.00
5061;DHT22;2549;52.128;21.068;2023-04-03T14:54:58;8.60;57.50
5061;DHT22;2549;52.128;21.068;2023-04-03T14:57:28;8.60;57.80
5061;DHT22;2549;52.128;21.068;2023-04-03T14:59:56;8.60;56.00
5061;DHT22;2549;52.128;21.068;2023-04-03T15:02:35;8.50;55.90
5061;DHT22;2549;52.128;21.068;2023-04-03T15:05:04;8.50;56.90
5061;DHT22;2549;52.128;21.068;2023-04-03T15:07:34;8.40;56.80
5061;DHT22;2549;52.128;21.068;2023-04-03T15:10:27;8.50;57.30
5061;DHT22;2549;52.128;21.068;2023-04-03T15:12:51;8.50;57.50
5061;DHT22;2549;52.128;21.068;2023-04-03T15:15:20;8.50;57.40
5061;DHT22;2549;52.128;21.068;2023-04-03T15:17:56;8.50;57.70
5061;DHT22;2549;52.128;21.068;2023-04-03T15:20:27;8.60;57.70
5061;DHT22;2549;52.128;21.068;2023-04-03T15:22:57;8.60;57.00
5061;DHT22;2549;52.128;21.068;2023-04-03T15:25:27;8.60;57.20
5061;DHT22;2549;52.128;21.068;2023-04-03T15:27:55;8.60;57.20
5061;DHT22;2549;52.128;21.068;2023-04-03T15:30:22;8.50;57.20
5061;DHT22;2549;52.128;21.068;2023-04-03T15:32:49;8.50;57.20
5061;DHT22;2549;52.128;21.068;2023-04-03T15:35:16;8.60;57.20
5061;DHT22;2549;52.128;21.068;2023-04-03T15:37:43;8.60;57.10
5061;DHT22;2549;52.128;21.068;2023-04-03T15:40:10;8.60;57.40
5061;DHT22;2549;52.128;21.068;2023-04-03T15:42:37;8.60;57.40
5061;DHT22;2549;52.128;21.068;2023-04-03T15:45:05;8.50;57.00
5061;DHT22;2549;52.128;21.068;2023-04-03T15:47:32;8.50;56.90
5061;DHT22;2549;52.128;21.068;2023-04-03T15:49:59;8.50;57.00
5061;DHT22;2549;52.128;21.068;2023-04-03T15:52:26;8.50;57.60
5061;DHT22;2549;52.128;21.068;2023-04-03T15:54:53;8.50;57.30
5061;DHT22;2549;52.128;21.068;2023-04-03T15:57:20;8.40;57.30
5061;DHT22;2549;52.128;21.068;2023-04-03T15:59:52;8.40;56.70
5061;DHT22;2549;52.128;21.068;2023-04-03T16:02:19;8.40;57.00
5061;DHT22;2549;52.128;21.068;2023-04-03T16:04:47;8.40;57.00
5061;DHT22;2549;52.128;21.068;2023-04-03T16:07:14;8.40;56.60
5061;DHT22;2549;52.128;21.068;2023-04-03T16:09:41;8.30;57.00
5061;DHT22;2549;52.128;21.068;2023-04-03T16:12:08;8.30;56.50
5061;DHT22;2549;52.128;21.068;2023-04-03T16:14:35;8.30;56.60
5061;DHT22;2549;52.128;21.068;2023-04-03T16:17:01;8.30;56.70
5061;DHT22;2549;52.128;21.068;2023-04-03T16:19:29;8.30;57.20
5061;DHT22;2549;52.128;21.068;2023-04-03T16:21:56;8.30;57.50
5061;DHT22;2549;52.128;21.068;2023-04-03T16:24:23;8.30;57.60
5061;DHT22;2549;52.128;21.068;2023-04-03T16:26:50;8.30;57.50
5061;DHT22;2549;52.128;21.068;2023-04-03T16:29:17;8.30;57.90
5061;DHT22;2549;52.128;21.068;2023-04-03T16:31:44;8.30;58.10
5061;DHT22;2549;52.128;21.068;2023-04-03T16:34:11;8.30;57.90
5061;DHT22;2549;52.128;21.068;2023-04-03T16:36:38;8.20;57.80
5061;DHT22;2549;52.128;21.068;2023-04-03T16:39:05;8.20;58.30
5061;DHT22;2549;52.128;21.068;2023-04-03T16:41:32;8.20;58.10
5061;DHT22;2549;52.128;21.068;2023-04-03T16:43:59;8.20;58.10
5061;DHT22;2549;52.128;21.068;2023-04-03T16:46:26;8.20;57.90
5061;DHT22;2549;52.128;21.068;2023-04-03T16:48:53;8.20;57.60
5061;DHT22;2549;52.128;21.068;2023-04-03T16:51:19;8.10;57.70
5061;DHT22;2549;52.128;21.068;2023-04-03T16:53:46;8.20;57.80
5061;DHT22;2549;52.128;21.068;2023-04-03T16:56:13;8.10;57.40
5061;DHT22;2549;52.128;21.068;2023-04-03T16:58:40;8.10;57.70
5061;DHT22;2549;52.128;21.068;2023-04-03T17:01:12;8.10;57.90
5061;DHT22;2549;52.128;21.068;2023-04-03T17:03:39;8.10;58.20
5061;DHT22;2549;52.128;21.068;2023-04-03T17:06:07;8.10;58.30
5061;DHT22;2549;52.128;21.068;2023-04-03T17:08:34;8.00;57.70
5061;DHT22;2549;52.128;21.068;2023-04-03T17:11:01;8.00;57.60
5061;DHT22;2549;52.128;21.068;2023-04-03T17:13:27;8.00;57.90
5061;DHT22;2549;52.128;21.068;2023-04-03T17:15:58;8.00;58.30
5061;DHT22;2549;52.128;21.068;2023-04-03T17:18:26;8.00;57.80
5061;DHT22;2549;52.128;21.068;2023-04-03T17:20:55;8.00;57.40
5061;DHT22;2549;52.128;21.068;2023-04-03T17:23:24;8.00;57.80
5061;DHT22;2549;52.128;21.068;2023-04-03T17:25:51;8.00;57.90
5061;DHT22;2549;52.128;21.068;2023-04-03T17:28:21;7.90;57.90
5061;DHT22;2549;52.128;21.068;2023-04-03T17:30:58;7.90;58.20
5061;DHT22;2549;52.128;21.068;2023-04-03T17:33:25;7.90;58.30
5061;DHT22;2549;52.128;21.068;2023-04-03T17:35:56;7.90;59.30
5061;DHT22;2549;52.128;21.068;2023-04-03T17:38:24;7.90;58.60
5061;DHT22;2549;52.128;21.068;2023-04-03T17:40:51;7.90;58.50
5061;DHT22;2549;52.128;21.068;2023-04-03T17:43:17;7.90;58.10
5061;DHT22;2549;52.128;21.068;2023-04-03T17:45:44;7.90;57.70
5061;DHT22;2549;52.128;21.068;2023-04-03T17:48:11;7.90;57.30
5061;DHT22;2549;52.128;21.068;2023-04-03T17:50:38;7.90;57.40
5061;DHT22;2549;52.128;21.068;2023-04-03T17:53:05;7.90;57.70
5061;DHT22;2549;52.128;21.068;2023-04-03T17:55:32;7.90;58.00
5061;DHT22;2549;52.128;21.068;2023-04-03T17:57:58;7.80;58.10
5061;DHT22;2549;52.128;21.068;2023-04-03T18:00:25;7.80;58.50
5061;DHT22;2549;52.128;21.068;2023-04-03T18:02:53;7.80;58.80
5061;DHT22;2549;52.128;21.068;2023-04-03T18:05:20;7.90;59.30
5061;DHT22;2549;52.128;21.068;2023-04-03T18:07:47;7.90;59.30
5061;DHT22;2549;52.128;21.068;2023-04-03T18:10:15;7.90;59.40
5061;DHT22;2549;52.128;21.068;2023-04-03T18:12:42;7.90;59.50
5061;DHT22;2549;52.128;21.068;2023-04-03T18:15:10;7.80;59.30